sensor_id;sensor_type;location;lat;lon;timestamp;temperature;humidity
18281;DHT22;9266;51.132;17.062;2023-08-07T00:02:11;14.00;99.90
18281;DHT22;9266;51.132;17.062;2023-08-07T00:04:37;14.00;99.90
18281;DHT22;9266;51.132;17.062;2023-08-07T00:07:05;14.00;99.90
18281;DHT22;9266;51.132;17.062;2023-08-07T00:09:33;14.00;99.90
18281;DHT22;9266;51.132;17.062;2023-08-07T00:12:00;14.10;99.90
18281;DHT22;9266;51.132;17.062;2023-08-07T00:14:28;14.00;99.90
18281;DHT22;9266;51.132;17.062;2023-08-07T00:16:55;14.00;99.90
18281;DHT22;9266;51.132;17.062;2023-08-07T00:19:22;14.00;99.90
18281;DHT22;9266;51.132;17.062;2023-08-07T00:21:48;14.00;99.90
18281;DHT22;9266;51.132;17.062;2023-08-07T00:24:15;14.00;99.90
18281;DHT22;9266;51.132;17.062;2023-08-07T00:26:44;14.00;99.90
18281;DHT22;9266;51.132;17.062;2023-08-07T00:29:11;14.00;99.90
18281;DHT22;9266;51.132;17.062;2023-08-07T00:31:37;14.10;99.90
18281;DHT22;9266;51.132;17.062;2023-08-07T00:34:04;14.00;99.90
18281;DHT22;9266;51.132;17.062;2023-08-07T00:36:31;14.00;99.90
18281;DHT22;9266;51.132;17.062;2023-08-07T00:39:00;14.00;99.90
18281;DHT22;9266;51.132;17.062;2023-08-07T00:41:29;14.00;99.90
18281;DHT22;9266;51.132;17.062;2023-08-07T00:43:57;14.00;99.90
18281;DHT22;9266;51.132;17.062;2023-08-07T00:46:24;14.00;99.90
18281;DHT22;9266;51.132;17.062;2023-08-07T00:48:51;14.00;99.90
18281;DHT22;9266;51.132;17.062;2023-08-07T00:51:19;14.00;99.90
18281;DHT22;9266;51.132;17.062;2023-08-07T00:53:48;14.00;99.90
18281;DHT22;9266;51.132;17.062;2023-08-07T00:56:15;14.00;99.90
18281;DHT22;9266;51.132;17.062;2023-08-07T00:58:43;13.90;99.90
18281;DHT22;9266;51.132;17.062;2023-08-07T01:01:11;13.90;99.90
18281;DHT22;9266;51.132;17.062;2023-08-07T01:03:39;13.90;99.90
18281;DHT22;9266;51.132;17.062;2023-08-07T01:06:06;13.90;99.90
18281;DHT22;9266;51.132;17.062;2023-08-07T01:08:33;13.90;99.90
18281;DHT22;9266;51.132;17.062;2023-08-07T01:11:14;13.90;99.90
18281;DHT22;9266;51.132;17.062;2023-08-07T01:13:50;13.90;99.90
18281;DHT22;9266;51.132;17.062;2023-08-07T01:16:25;13.90;99.90
18281;DHT22;9266;51.132;17.062;2023-08-07T01:18:53;13.80;99.90
18281;DHT22;9266;51.132;17.062;2023-08-07T01:21:21;13.80;99.90
18281;DHT22;9266;51.132;17.062;2023-08-07T01:23:49;13.80;99.90
18281;DHT22;9266;51.132;17.062;2023-08-07T01:26:18;13.80;99.90
18281;DHT22;9266;51.132;17.062;2023-08-07T01:28:52;13.80;99.90
18281;DHT22;9266;51.132;17.062;2023-08-07T01:31:22;13.80;99.90
18281;DHT22;9266;51.132;17.062;2023-08-07T01:33:56;13.10;99.90
18281;DHT22;9266;51.132;17.062;2023-08-07T01:36:25;13.70;99.90
18281;DHT22;9266;51.132;17.062;2023-08-07T01:38:56;13.70;99.90
18281;DHT22;9266;51.132;17.062;2023-08-07T01:41:24;13.70;99.90
18281;DHT22;9266;51.132;17.062;2023-08-07T01:43:51;13.70;99.90
18281;DHT22;9266;51.132;17.062;2023-08-07T01:46:18;13.80;99.90
18281;DHT22;9266;51.132;17.062;2023-08-07T01:48:45;13.70;99.90
18281;DHT22;9266;51.132;17.062;2023-08-07T01:51:12;13.80;99.90
18281;DHT22;9266;51.132;17.062;2023-08-07T01:53:39;13.70;99.90
18281;DHT22;9266;51.132;17.062;2023-08-07T01:56:07;13.70;99.90
18281;DHT22;9266;51.132;17.062;2023-08-07T01:58:34;13.60;99.90
18281;DHT22;9266;51.132;17.062;2023-08-07T02:01:01;13.50;99.90
18281;DHT22;9266;51.132;17.062;2023-08-07T02:03:28;13.50;99.90
18281;DHT22;9266;51.132;17.062;2023-08-07T02:05:55;13.50;99.90
18281;DHT22;9266;51.132;17.062;2023-08-07T02:08:22;13.50;99.90
18281;DHT22;9266;51.132;17.062;2023-08-07T02:10:49;13.50;99.90
18281;DHT22;9266;51.132;17.062;2023-08-07T02:13:17;13.40;99.90
18281;DHT22;9266;51.132;17.062;2023-08-07T02:15:44;13.40;99.90
18281;DHT22;9266;51.132;17.062;2023-08-07T02:18:11;13.40;99.90
18281;DHT22;9266;51.132;17.062;2023-08-07T02:20:38;13.50;99.90
18281;DHT22;9266;51.132;17.062;2023-08-07T02:23:05;13.50;99.90
18281;DHT22;9266;51.132;17.062;2023-08-07T02:25:32;13.50;99.90
18281;DHT22;9266;51.132;17.062;2023-08-07T02:27:58;13.50;99.90
18281;DHT22;9266;51.132;17.062;2023-08-07T02:30:26;13.60;99.90
18281;DHT22;9266;51.132;17.062;2023-08-07T02:32:53;13.60;99.90
18281;DHT22;9266;51.132;17.062;2023-08-07T02:35:20;13.70;99.90
18281;DHT22;9266;51.132;17.062;2023-08-07T02:37:47;13.70;99.90
18281;DHT22;9266;51.132;17.062;2023-08-07T02:40:14;13.70;99.90
18281;DHT22;9266;51.132;17.062;2023-08-07T02:42:43;13.80;99.90
18281;DHT22;9266;51.132;17.062;2023-08-07T02:45:10;13.90;99.90
18281;DHT22;9266;51.132;17.062;2023-08-07T02:47:38;13.90;99.90
18281;DHT22;9266;51.132;17.062;2023-08-07T02:50:06;14.00;99.90
18281;DHT22;9266;51.132;17.062;2023-08-07T02:52:33;14.10;99.90
18281;DHT22;9266;51.132;17.062;2023-08-07T02:55:00;14.10;99.90
18281;DHT22;9266;51.132;17.062;2023-08-07T02:57:27;14.10;99.90
18281;DHT22;9266;51.132;17.062;2023-08-07T02:59:54;14.20;99.90
18281;DHT22;9266;51.132;17.062;2023-08-07T03:02:21;14.20;99.90
18281;DHT22;9266;51.132;17.062;2023-08-07T03:04:49;14.30;99.90
18281;DHT22;9266;51.132;17.062;2023-08-07T03:07:16;14.30;99.90
18281;DHT22;9266;51.132;17.062;2023-08-07T03:09:45;14.30;99.90
18281;DHT22;9266;51.132;17.062;2023-08-07T03:12:12;14.30;99.90
18281;DHT22;9266;51.132;17.062;2023-08-07T03:14:40;14.30;99.90
18281;DHT22;9266;51.132;17.062;2023-08-07T03:17:06;14.40;99.90
18281;DHT22;9266;51.132;17.062;2023-08-07T03:19:33;14.40;99.90
18281;DHT22;9266;51.132;17.062;2023-08-07T03:22:02;14.50;99.90
18281;DHT22;9266;51.132;17.062;2023-08-07T03:24:29;14.50;99.90
18281;DHT22;9266;51.132;17.062;2023-08-07T03:26:56;14.40;99.90
18281;DHT22;9266;51.132;17.062;2023-08-07T03:29:23;14.50;99.90
18281;DHT22;9266;51.132;17.062;2023-08-07T03:31:50;14.50;99.90
18281;DHT22;9266;51.132;17.062;2023-08-07T03:34:17;14.50;99.90
18281;DHT22;9266;51.132;17.062;2023-08-07T03:36:44;14.50;99.90
18281;DHT22;9266;51.132;17.062;2023-08-07T03:39:13;14.50;99.90
18281;DHT22;9266;51.132;17.062;2023-08-07T03:41:40;14.50;99.90
18281;DHT22;9266;51.132;17.062;2023-08-07T03:44:07;14.50;99.90
18281;DHT22;9266;51.132;17.062;2023-08-07T03:46:34;14.50;99.90
18281;DHT22;9266;51.132;17.062;2023-08-07T03:49:01;14.50;99.90
18281;DHT22;9266;51.132;17.062;2023-08-07T03:51:28;14.50;99.90
18281;DHT22;9266;51.132;17.062;2023-08-07T03:53:56;14.50;99.90
18281;DHT22;9266;51.132;17.062;2023-08-07T03:56:24;14.60;99.90
18281;DHT22;9266;51.132;17.062;2023-08-07T03:58:51;14.60;99.90
18281;DHT22;9266;51.132;17.062;2023-08-07T04:01:18;14.50;99.90
18281;DHT22;9266;51.132;17.062;2023-08-07T04:03:46;14.50;99.90
18281;DHT22;9266;51.132;17.062;2023-08-07T04:06:13;14.50;99.90
18281;DHT22;9266;51.132;17.062;2023-08-07T04:08:41;14.10;99.90
18281;DHT22;9266;51.132;17.062;2023-08-07T04:11:08;14.40;99.90
18281;DHT22;9266;51.132;17.062;2023-08-07T04:13:37;14.30;99.90
18281;DHT22;9266;51.132;17.062;2023-08-07T04:16:04;14.30;99.90
18281;DHT22;9266;51.132;17.062;2023-08-07T04:18:31;14.30;99.90
18281;DHT22;9266;51.132;17.062;2023-08-07T04:20:59;14.30;99.90
18281;DHT22;9266;51.132;17.062;2023-08-07T04:23:26;14.30;99.90
18281;DHT22;9266;51.132;17.062;2023-08-07T04:25:53;14.30;99.90
18281;DHT22;9266;51.132;17.062;2023-08-07T04:28:21;14.30;99.90
18281;DHT22;9266;51.132;17.062;2023-08-07T04:30:51;14.40;99.90
18281;DHT22;9266;51.132;17.062;2023-08-07T04:33:18;14.50;99.90
18281;DHT22;9266;51.132;17.062;2023-08-07T04:35:45;14.40;99.90
18281;DHT22;9266;51.132;17.062;2023-08-07T04:38:13;14.40;99.90
18281;DHT22;9266;51.132;17.062;2023-08-07T04:40:44;14.40;99.90
18281;DHT22;9266;51.132;17.062;2023-08-07T04:43:11;14.40;99.90
18281;DHT22;9266;51.132;17.062;2023-08-07T04:45:38;14.40;99.90
18281;DHT22;9266;51.132;17.062;2023-08-07T04:48:07;14.30;99.90
18281;DHT22;9266;51.132;17.062;2023-08-07T04:50:34;14.30;99.90
18281;DHT22;9266;51.132;17.062;2023-08-07T04:53:01;14.20;99.90
18281;DHT22;9266;51.132;17.062;2023-08-07T04:55:28;14.20;99.90
18281;DHT22;9266;51.132;17.062;2023-08-07T04:57:55;14.20;99.90
18281;DHT22;9266;51.132;17.062;2023-08-07T05:00:22;14.10;99.90
18281;DHT22;9266;51.132;17.062;2023-08-07T05:02:49;14.20;99.90
18281;DHT22;9266;51.132;17.062;2023-08-07T05:05:17;13.40;99.90
18281;DHT22;9266;51.132;17.062;2023-08-07T05:07:46;14.10;99.90
18281;DHT22;9266;51.132;17.062;2023-08-07T05:10:13;14.10;99.90
18281;DHT22;9266;51.132;17.062;2023-08-07T05:12:40;14.20;99.90
18281;DHT22;9266;51.132;17.062;2023-08-07T05:15:08;14.10;99.90
18281;DHT22;9266;51.132;17.062;2023-08-07T05:17:35;14.20;99.90
18281;DHT22;9266;51.132;17.062;2023-08-07T05:20:02;14.20;99.90
18281;DHT22;9266;51.132;17.062;2023-08-07T05:22:30;14.30;99.90
18281;DHT22;9266;51.132;17.062;2023-08-07T05:24:57;14.30;99.90
18281;DHT22;9266;51.132;17.062;2023-08-07T05:27:24;14.30;99.90
18281;DHT22;9266;51.132;17.062;2023-08-07T05:29:51;14.30;99.90
18281;DHT22;9266;51.132;17.062;2023-08-07T05:32:18;14.40;99.90
18281;DHT22;9266;51.132;17.062;2023-08-07T05:34:45;14.40;99.90
18281;DHT22;9266;51.132;17.062;2023-08-07T05:37:12;14.40;99.90
18281;DHT22;9266;51.132;17.062;2023-08-07T05:39:40;14.40;99.90
18281;DHT22;9266;51.132;17.062;2023-08-07T05:42:08;14.40;99.90
18281;DHT22;9266;51.132;17.062;2023-08-07T05:44:35;14.40;99.90
18281;DHT22;9266;51.132;17.062;2023-08-07T05:47:02;14.50;99.90
18281;DHT22;9266;51.132;17.062;2023-08-07T05:49:29;14.70;99.90
18281;DHT22;9266;51.132;17.062;2023-08-07T05:51:56;14.70;99.90
18281;DHT22;9266;51.132;17.062;2023-08-07T05:54:23;14.70;99.90
18281;DHT22;9266;51.132;17.062;2023-08-07T05:56:52;14.70;99.90
18281;DHT22;9266;51.132;17.062;2023-08-07T05:59:19;14.70;99.90
18281;DHT22;9266;51.132;17.062;2023-08-07T06:01:46;14.70;99.90
18281;DHT22;9266;51.132;17.062;2023-08-07T06:04:13;14.70;99.90
18281;DHT22;9266;51.132;17.062;2023-08-07T06:06:40;14.70;99.90
18281;DHT22;9266;51.132;17.062;2023-08-07T06:09:08;14.70;99.90
18281;DHT22;9266;51.132;17.062;2023-08-07T06:11:35;14.80;99.90
18281;DHT22;9266;51.132;17.062;2023-08-07T06:14:04;14.80;99.90
18281;DHT22;9266;51.132;17.062;2023-08-07T06:16:31;14.80;99.90
18281;DHT22;9266;51.132;17.062;2023-08-07T06:18:58;14.70;99.90
18281;DHT22;9266;51.132;17.062;2023-08-07T06:21:25;14.80;99.90
18281;DHT22;9266;51.132;17.062;2023-08-07T06:23:54;14.70;99.90
18281;DHT22;9266;51.132;17.062;2023-08-07T06:26:21;14.70;99.90
18281;DHT22;9266;51.132;17.062;2023-08-07T06:28:48;14.80;99.90
18281;DHT22;9266;51.132;17.062;2023-08-07T06:31:17;14.80;99.90
18281;DHT22;9266;51.132;17.062;2023-08-07T06:33:44;14.80;99.90
18281;DHT22;9266;51.132;17.062;2023-08-07T06:36:11;14.90;99.90
18281;DHT22;9266;51.132;17.062;2023-08-07T06:38:38;14.90;99.90
18281;DHT22;9266;51.132;17.062;2023-08-07T06:41:05;14.90;99.90
18281;DHT22;9266;51.132;17.062;2023-08-07T06:43:32;15.00;99.90
18281;DHT22;9266;51.132;17.062;2023-08-07T06:45:59;15.00;99.90
18281;DHT22;9266;51.132;17.062;2023-08-07T06:48:28;15.10;99.90
18281;DHT22;9266;51.132;17.062;2023-08-07T06:50:55;15.20;99.90
18281;DHT22;9266;51.132;17.062;2023-08-07T06:53:21;15.30;99.90
18281;DHT22;9266;51.132;17.062;2023-08-07T06:55:48;15.50;99.90
18281;DHT22;9266;51.132;17.062;2023-08-07T06:58:15;15.60;99.90
18281;DHT22;9266;51.132;17.062;2023-08-07T07:00:42;15.80;99.90
18281;DHT22;9266;51.132;17.062;2023-08-07T07:03:09;15.90;99.90
18281;DHT22;9266;51.132;17.062;2023-08-07T07:05:38;16.00;99.90
18281;DHT22;9266;51.132;17.062;2023-08-07T07:08:05;16.00;99.90
18281;DHT22;9266;51.132;17.062;2023-08-07T07:10:32;16.20;99.90
18281;DHT22;9266;51.132;17.062;2023-08-07T07:12:59;16.30;99.90
18281;DHT22;9266;51.132;17.062;2023-08-07T07:15:26;16.70;99.90
18281;DHT22;9266;51.132;17.062;2023-08-07T07:17:53;16.80;99.90
18281;DHT22;9266;51.132;17.062;2023-08-07T07:20:20;17.10;99.90
18281;DHT22;9266;51.132;17.062;2023-08-07T07:22:48;17.30;99.90
18281;DHT22;9266;51.132;17.062;2023-08-07T07:25:15;17.50;99.90
18281;DHT22;9266;51.132;17.062;2023-08-07T07:27:42;17.60;99.90
18281;DHT22;9266;51.132;17.062;2023-08-07T07:30:10;17.90;99.90
18281;DHT22;9266;51.132;17.062;2023-08-07T07:32:37;18.20;99.90
18281;DHT22;9266;51.132;17.062;2023-08-07T07:35:04;18.40;99.90
18281;DHT22;9266;51.132;17.062;2023-08-07T07:37:32;18.30;99.90
18281;DHT22;9266;51.132;17.062;2023-08-07T07:40:00;18.40;99.90
18281;DHT22;9266;51.132;17.062;2023-08-07T07:42:27;18.60;99.90
18281;DHT22;9266;51.132;17.062;2023-08-07T07:44:54;19.30;99.90
18281;DHT22;9266;51.132;17.062;2023-08-07T07:47:21;19.80;1.00
18281;DHT22;9266;51.132;17.062;2023-08-07T07:49:48;20.40;16.40
18281;DHT22;9266;51.132;17.062;2023-08-07T07:52:15;20.60;56.90
18281;DHT22;9266;51.132;17.062;2023-08-07T07:54:42;20.40;99.90
18281;DHT22;9266;51.132;17.062;2023-08-07T07:57:10;20.40;1.00
18281;DHT22;9266;51.132;17.062;2023-08-07T07:59:37;20.40;99.90
18281;DHT22;9266;51.132;17.062;2023-08-07T08:02:04;20.30;1.00
18281;DHT22;9266;51.132;17.062;2023-08-07T08:04:31;20.80;99.90
18281;DHT22;9266;51.132;17.062;2023-08-07T08:07:00;21.80;1.00
18281;DHT22;9266;51.132;17.062;2023-08-07T08:09:29;21.50;1.00
18281;DHT22;9266;51.132;17.062;2023-08-07T08:11:56;21.00;99.90
18281;DHT22;9266;51.132;17.062;2023-08-07T08:14:24;21.00;99.90
18281;DHT22;9266;51.132;17.062;2023-08-07T08:16:51;21.60;1.00
18281;DHT22;9266;51.132;17.062;2023-08-07T08:19:18;21.20;1.00
18281;DHT22;9266;51.132;17.062;2023-08-07T08:21:45;20.80;1.00
18281;DHT22;9266;51.132;17.062;2023-08-07T08:24:12;21.10;1.00
18281;DHT22;9266;51.132;17.062;2023-08-07T08:26:39;21.80;1.00
18281;DHT22;9266;51.132;17.062;2023-08-07T08:29:06;21.80;1.00
18281;DHT22;9266;51.132;17.062;2023-08-07T08:31:35;21.20;12.10
18281;DHT22;9266;51.132;17.062;2023-08-07T08:34:02;20.90;1.00
18281;DHT22;9266;51.132;17.062;2023-08-07T08:36:29;20.10;1.00
18281;DHT22;9266;51.132;17.062;2023-08-07T08:38:56;19.80;1.00
18281;DHT22;9266;51.132;17.062;2023-08-07T08:41:24;19.40;1.50
18281;DHT22;9266;51.132;17.062;2023-08-07T08:43:52;18.10;1.00
18281;DHT22;9266;51.132;17.062;2023-08-07T08:46:20;19.00;1.00
18281;DHT22;9266;51.132;17.062;2023-08-07T08:48:55;19.20;41.90
18281;DHT22;9266;51.132;17.062;2023-08-07T08:51:24;19.50;99.90
18281;DHT22;9266;51.132;17.062;2023-08-07T08:53:52;19.40;1.00
18281;DHT22;9266;51.132;17.062;2023-08-07T08:56:22;19.40;99.90
18281;DHT22;9266;51.132;17.062;2023-08-07T08:58:50;19.30;10.90
18281;DHT22;9266;51.132;17.062;2023-08-07T09:01:18;19.40;16.50
18281;DHT22;9266;51.132;17.062;2023-08-07T09:03:45;19.50;99.90
18281;DHT22;9266;51.132;17.062;2023-08-07T09:06:14;19.60;99.90
18281;DHT22;9266;51.132;17.062;2023-08-07T09:08:42;19.90;1.00
18281;DHT22;9266;51.132;17.062;2023-08-07T09:11:10;20.90;1.00
18281;DHT22;9266;51.132;17.062;2023-08-07T09:13:40;21.70;1.00
18281;DHT22;9266;51.132;17.062;2023-08-07T09:16:10;21.80;99.90
18281;DHT22;9266;51.132;17.062;2023-08-07T09:18:38;22.00;1.00
18281;DHT22;9266;51.132;17.062;2023-08-07T09:21:05;21.40;99.90
18281;DHT22;9266;51.132;17.062;2023-08-07T09:23:34;21.70;99.90
18281;DHT22;9266;51.132;17.062;2023-08-07T09:26:02;22.00;1.00
18281;DHT22;9266;51.132;17.062;2023-08-07T09:28:30;21.80;12.70
18281;DHT22;9266;51.132;17.062;2023-08-07T09:30:58;19.50;1.00
18281;DHT22;9266;51.132;17.062;2023-08-07T09:33:28;19.70;1.00
18281;DHT22;9266;51.132;17.062;2023-08-07T09:35:57;19.70;1.00
18281;DHT22;9266;51.132;17.062;2023-08-07T09:38:28;19.40;28.40
18281;DHT22;9266;51.132;17.062;2023-08-07T09:40:59;19.40;99.90
18281;DHT22;9266;51.132;17.062;2023-08-07T09:43:26;19.60;1.00
18281;DHT22;9266;51.132;17.062;2023-08-07T09:45:53;19.90;99.90
18281;DHT22;9266;51.132;17.062;2023-08-07T09:48:28;20.30;99.90
18281;DHT22;9266;51.132;17.062;2023-08-07T09:50:58;20.20;1.00
18281;DHT22;9266;51.132;17.062;2023-08-07T09:53:26;20.40;1.00
18281;DHT22;9266;51.132;17.062;2023-08-07T09:55:53;20.80;1.00
18281;DHT22;9266;51.132;17.062;2023-08-07T09:58:22;20.70;1.00
18281;DHT22;9266;51.132;17.062;2023-08-07T10:00:49;20.30;1.00
18281;DHT22;9266;51.132;17.062;2023-08-07T10:03:19;20.10;1.00
18281;DHT22;9266;51.132;17.062;2023-08-07T10:05:46;20.20;1.00
18281;DHT22;9266;51.132;17.062;2023-08-07T10:08:13;19.90;1.00
18281;DHT22;9266;51.132;17.062;2023-08-07T10:10:41;19.90;1.00
18281;DHT22;9266;51.132;17.062;2023-08-07T10:13:08;20.10;1.00
18281;DHT22;9266;51.132;17.062;2023-08-07T10:15:37;20.00;1.00
18281;DHT22;9266;51.132;17.062;2023-08-07T10:18:06;19.80;1.00
18281;DHT22;9266;51.132;17.062;2023-08-07T10:20:33;19.90;1.00
18281;DHT22;9266;51.132;17.062;2023-08-07T10:23:03;19.70;1.00
18281;DHT22;9266;51.132;17.062;2023-08-07T10:25:31;20.00;1.00
18281;DHT22;9266;51.132;17.062;2023-08-07T10:27:59;20.20;1.00
18281;DHT22;9266;51.132;17.062;2023-08-07T10:30:28;20.00;1.00
18281;DHT22;9266;51.132;17.062;2023-08-07T10:32:58;20.10;1.00
18281;DHT22;9266;51.132;17.062;2023-08-07T10:35:30;20.10;1.00
18281;DHT22;9266;51.132;17.062;2023-08-07T10:38:06;20.20;1.00
18281;DHT22;9266;51.132;17.062;2023-08-07T10:40:34;20.00;1.00
18281;DHT22;9266;51.132;17.062;2023-08-07T10:43:13;20.20;1.00
18281;DHT22;9266;51.132;17.062;2023-08-07T10:45:43;20.40;1.00
18281;DHT22;9266;51.132;17.062;2023-08-07T10:48:13;20.40;1.00
18281;DHT22;9266;51.132;17.062;2023-08-07T10:50:50;20.60;1.00
18281;DHT22;9266;51.132;17.062;2023-08-07T10:53:20;21.00;99.90
18281;DHT22;9266;51.132;17.062;2023-08-07T10:55:48;20.90;99.90
18281;DHT22;9266;51.132;17.062;2023-08-07T10:58:22;21.10;99.90
18281;DHT22;9266;51.132;17.062;2023-08-07T11:00:50;21.40;99.90
18281;DHT22;9266;51.132;17.062;2023-08-07T11:03:26;21.20;99.90
18281;DHT22;9266;51.132;17.062;2023-08-07T11:05:53;21.20;99.90
18281;DHT22;9266;51.132;17.062;2023-08-07T11:08:22;21.80;99.90
18281;DHT22;9266;51.132;17.062;2023-08-07T11:10:51;21.40;90.30
18281;DHT22;9266;51.132;17.062;2023-08-07T11:13:18;21.40;93.70
18281;DHT22;9266;51.132;17.062;2023-08-07T11:15:46;21.30;81.30
18281;DHT22;9266;51.132;17.062;2023-08-07T11:18:14;21.20;99.90
18281;DHT22;9266;51.132;17.062;2023-08-07T11:20:44;21.20;99.90
18281;DHT22;9266;51.132;17.062;2023-08-07T11:23:12;21.00;99.90
18281;DHT22;9266;51.132;17.062;2023-08-07T11:25:39;21.00;99.90
18281;DHT22;9266;51.132;17.062;2023-08-07T11:28:07;20.90;99.90
18281;DHT22;9266;51.132;17.062;2023-08-07T11:30:35;20.60;99.90
18281;DHT22;9266;51.132;17.062;2023-08-07T11:33:02;20.50;99.90
18281;DHT22;9266;51.132;17.062;2023-08-07T11:35:30;20.30;1.00
18281;DHT22;9266;51.132;17.062;2023-08-07T11:37:59;20.40;1.00
18281;DHT22;9266;51.132;17.062;2023-08-07T11:40:26;20.50;1.00
18281;DHT22;9266;51.132;17.062;2023-08-07T11:42:53;20.70;1.00
18281;DHT22;9266;51.132;17.062;2023-08-07T11:45:19;20.60;1.00
18281;DHT22;9266;51.132;17.062;2023-08-07T11:47:46;20.80;1.00
18281;DHT22;9266;51.132;17.062;2023-08-07T11:50:14;20.80;1.00
18281;DHT22;9266;51.132;17.062;2023-08-07T11:52:41;20.90;1.00
18281;DHT22;9266;51.132;17.062;2023-08-07T11:55:10;20.80;1.00
18281;DHT22;9266;51.132;17.062;2023-08-07T11:57:38;21.00;99.90
18281;DHT22;9266;51.132;17.062;2023-08-07T12:00:09;20.80;99.90
18281;DHT22;9266;51.132;17.062;2023-08-07T12:02:41;20.50;99.90
18281;DHT22;9266;51.132;17.062;2023-08-07T12:05:09;20.80;99.90
18281;DHT22;9266;51.132;17.062;2023-08-07T12:07:38;20.90;99.90
18281;DHT22;9266;51.132;17.062;2023-08-07T12:10:07;21.20;93.40
18281;DHT22;9266;51.132;17.062;2023-08-07T12:12:37;21.30;81.30
18281;DHT22;9266;51.132;17.062;2023-08-07T12:15:07;21.00;99.90
18281;DHT22;9266;51.132;17.062;2023-08-07T12:17:35;20.80;99.90
18281;DHT22;9266;51.132;17.062;2023-08-07T12:20:04;20.90;99.90
18281;DHT22;9266;51.132;17.062;2023-08-07T12:22:33;20.80;1.00
18281;DHT22;9266;51.132;17.062;2023-08-07T12:24:59;20.80;1.00
18281;DHT22;9266;51.132;17.062;2023-08-07T12:27:27;20.70;1.00
18281;DHT22;9266;51.132;17.062;2023-08-07T12:29:55;20.30;1.00
18281;DHT22;9266;51.132;17.062;2023-08-07T12:32:22;20.30;99.90
18281;DHT22;9266;51.132;17.062;2023-08-07T12:34:49;20.30;99.90
18281;DHT22;9266;51.132;17.062;2023-08-07T12:37:16;20.10;1.00
18281;DHT22;9266;51.132;17.062;2023-08-07T12:39:43;20.00;1.00
18281;DHT22;9266;51.132;17.062;2023-08-07T12:42:10;20.30;1.00
18281;DHT22;9266;51.132;17.062;2023-08-07T12:44:37;20.60;99.90
18281;DHT22;9266;51.132;17.062;2023-08-07T12:47:06;20.40;1.00
18281;DHT22;9266;51.132;17.062;2023-08-07T12:49:33;20.10;1.00
18281;DHT22;9266;51.132;17.062;2023-08-07T12:52:00;20.20;99.90
18281;DHT22;9266;51.132;17.062;2023-08-07T12:54:26;20.20;99.90
18281;DHT22;9266;51.132;17.062;2023-08-07T12:56:53;20.30;1.00
18281;DHT22;9266;51.132;17.062;2023-08-07T12:59:21;20.10;1.00
18281;DHT22;9266;51.132;17.062;2023-08-07T13:01:48;20.00;1.00
18281;DHT22;9266;51.132;17.062;2023-08-07T13:04:16;20.40;1.00
18281;DHT22;9266;51.132;17.062;2023-08-07T13:06:44;20.90;1.00
18281;DHT22;9266;51.132;17.062;2023-08-07T13:09:11;21.20;1.00
18281;DHT22;9266;51.132;17.062;2023-08-07T13:11:38;21.10;1.00
18281;DHT22;9266;51.132;17.062;2023-08-07T13:14:05;21.30;1.00
18281;DHT22;9266;51.132;17.062;2023-08-07T13:16:32;21.20;1.00
18281;DHT22;9266;51.132;17.062;2023-08-07T13:18:59;21.10;1.00
18281;DHT22;9266;51.132;17.062;2023-08-07T13:21:27;20.80;1.00
18281;DHT22;9266;51.132;17.062;2023-08-07T13:23:54;20.60;1.00
18281;DHT22;9266;51.132;17.062;2023-08-07T13:26:21;20.50;21.80
18281;DHT22;9266;51.132;17.062;2023-08-07T13:28:48;20.30;99.90
18281;DHT22;9266;51.132;17.062;2023-08-07T13:31:15;20.90;1.00
18281;DHT22;9266;51.132;17.062;2023-08-07T13:33:42;20.20;99.90
18281;DHT22;9266;51.132;17.062;2023-08-07T13:36:09;20.20;99.90
18281;DHT22;9266;51.132;17.062;2023-08-07T13:38:37;20.30;99.90
18281;DHT22;9266;51.132;17.062;2023-08-07T13:41:04;20.70;1.00
18281;DHT22;9266;51.132;17.062;2023-08-07T13:43:31;20.70;1.00
18281;DHT22;9266;51.132;17.062;2023-08-07T13:45:58;20.80;1.00
18281;DHT22;9266;51.132;17.062;2023-08-07T13:48:25;21.20;1.00
18281;DHT22;9266;51.132;17.062;2023-08-07T13:50:53;21.20;1.00
18281;DHT22;9266;51.132;17.062;2023-08-07T13:53:20;21.40;1.00
18281;DHT22;9266;51.132;17.062;2023-08-07T13:55:50;21.00;1.00
18281;DHT22;9266;51.132;17.062;2023-08-07T13:58:17;21.40;1.00
18281;DHT22;9266;51.132;17.062;2023-08-07T14:00:44;21.90;1.00
18281;DHT22;9266;51.132;17.062;2023-08-07T14:03:11;21.80;1.00
18281;DHT22;9266;51.132;17.062;2023-08-07T14:05:38;21.90;1.00
18281;DHT22;9266;51.132;17.062;2023-08-07T14:08:05;21.30;1.00
18281;DHT22;9266;51.132;17.062;2023-08-07T14:10:33;21.20;1.00
18281;DHT22;9266;51.132;17.062;2023-08-07T14:13:03;21.00;1.00
18281;DHT22;9266;51.132;17.062;2023-08-07T14:15:30;21.10;1.00
18281;DHT22;9266;51.132;17.062;2023-08-07T14:17:57;21.10;1.00
18281;DHT22;9266;51.132;17.062;2023-08-07T14:20:25;20.80;99.90
18281;DHT22;9266;51.132;17.062;2023-08-07T14:22:52;20.60;99.90
18281;DHT22;9266;51.132;17.062;2023-08-07T14:25:19;19.50;99.90
18281;DHT22;9266;51.132;17.062;2023-08-07T14:27:47;18.50;99.90
18281;DHT22;9266;51.132;17.062;2023-08-07T14:30:15;18.70;1.00
18281;DHT22;9266;51.132;17.062;2023-08-07T14:32:42;17.40;1.00
18281;DHT22;9266;51.132;17.062;2023-08-07T14:35:09;17.30;1.00
18281;DHT22;9266;51.132;17.062;2023-08-07T14:37:36;17.30;1.00
18281;DHT22;9266;51.132;17.062;2023-08-07T14:40:04;17.60;1.00
18281;DHT22;9266;51.132;17.062;2023-08-07T14:42:32;17.90;1.00
18281;DHT22;9266;51.132;17.062;2023-08-07T14:44:59;18.10;1.00
18281;DHT22;9266;51.132;17.062;2023-08-07T14:47:27;18.20;1.00
18281;DHT22;9266;51.132;17.062;2023-08-07T14:49:54;18.30;1.00
18281;DHT22;9266;51.132;17.062;2023-08-07T14:52:21;18.60;99.90
18281;DHT22;9266;51.132;17.062;2023-08-07T14:54:48;18.80;1.00
18281;DHT22;9266;51.132;17.062;2023-08-07T14:57:15;19.10;99.90
18281;DHT22;9266;51.132;17.062;2023-08-07T14:59:42;19.40;99.90
18281;DHT22;9266;51.132;17.062;2023-08-07T15:02:09;19.80;1.00
18281;DHT22;9266;51.132;17.062;2023-08-07T15:04:37;20.20;99.90
18281;DHT22;9266;51.132;17.062;2023-08-07T15:07:05;20.30;99.90
18281;DHT22;9266;51.132;17.062;2023-08-07T15:09:32;20.20;1.00
18281;DHT22;9266;51.132;17.062;2023-08-07T15:11:59;20.00;1.00
18281;DHT22;9266;51.132;17.062;2023-08-07T15:14:26;19.80;99.90
18281;DHT22;9266;51.132;17.062;2023-08-07T15:16:53;19.50;99.90
18281;DHT22;9266;51.132;17.062;2023-08-07T15:19:20;19.50;99.90
18281;DHT22;9266;51.132;17.062;2023-08-07T15:21:50;19.40;1.00
18281;DHT22;9266;51.132;17.062;2023-08-07T15:24:17;19.30;99.90
18281;DHT22;9266;51.132;17.062;2023-08-07T15:26:44;19.40;1.00
18281;DHT22;9266;51.132;17.062;2023-08-07T15:29:11;19.50;1.00
18281;DHT22;9266;51.132;17.062;2023-08-07T15:31:39;19.60;1.00
18281;DHT22;9266;51.132;17.062;2023-08-07T15:34:06;19.60;99.90
18281;DHT22;9266;51.132;17.062;2023-08-07T15:36:33;19.60;99.90
18281;DHT22;9266;51.132;17.062;2023-08-07T15:39:01;19.60;1.00